PDT,Max TemperatureF,Mean TemperatureF,Min TemperatureF,Max Dew PointF,MeanDew PointF,Min DewpointF,Max Humidity, Mean Humidity, Min Humidity, Max Sea Level PressureIn, Mean Sea Level PressureIn, Min Sea Level PressureIn, Max VisibilityMiles, Mean VisibilityMiles, Min VisibilityMiles, Max Wind SpeedMPH, Mean Wind SpeedMPH, Max Gust SpeedMPH,PrecipitationIn, CloudCover, Events, WindDirDegrees
2011-10-1,77,68,59,55,53,51,84,65,46,30.02,29.98,29.95,10,10,5,18,7,21,0.00,2,,265
2011-10-2,76,65,53,55,52,43,87,59,31,30.08,30.02,29.98,10,10,10,16,5,21,0.00,3,,270
2011-10-3,69,59,48,56,51,45,93,67,40,29.99,29.92,29.88,10,10,10,16,3,18,0.10,4,Rain,280
2011-10-4,69,63,56,57,53,48,90,70,49,29.93,29.87,29.73,10,10,6,17,8,22,0.10,7,Rain,233
2011-10-5,64,57,50,54,50,46,93,75,56,29.87,29.76,29.62,10,9,5,24,8,28,0.42,5,Rain,237
2011-10-6,62,55,47,52,48,46,93,77,60,30.08,29.94,29.88,10,9,2,21,4,28,0.39,5,Rain,214
2011-10-7,72,58,44,50,46,42,100,70,40,30.17,30.12,30.09,10,9,1,15,3,16,0.00,0,,236
2011-10-8,77,62,46,55,49,45,93,65,36,30.12,30.07,30.01,10,10,10,15,3,17,0.00,0,,277
2011-10-9,79,66,52,55,52,51,100,70,39,30.05,30.00,29.91,10,8,2,15,4,17,0.00,4,,268
2011-10-10,70,63,56,64,60,53,100,84,68,29.99,29.96,29.94,10,8,2,13,6,16,0.05,7,Rain,237
2011-10-11,77,68,58,63,61,59,93,75,56,30.07,30.03,30.00,10,10,8,12,4,16,0.01,5,Rain,274
2011-10-12,83,68,53,58,51,44,100,64,28,30.10,30.04,29.96,10,9,0,14,4,17,0.00,1,Fog,61
2011-10-13,88,70,52,50,46,42,77,49,21,29.99,29.90,29.81,10,10,10,14,3,18,0.00,0,,60
2011-10-14,87,71,55,56,51,46,77,52,27,29.85,29.82,29.78,10,10,10,9,2,13,0.00,0,,20
2011-10-15,82,68,54,57,54,52,86,62,37,29.95,29.87,29.82,10,10,9,17,6,21,0.00,0,,289
2011-10-16,77,68,58,57,56,55,84,67,50,30.08,30.02,29.96,10,10,10,15,6,18,0.00,2,,282
2011-10-17,87,70,52,55,52,50,93,61,29,30.12,30.04,29.98,10,10,7,16,5,21,0.00,0,,69
2011-10-18,87,71,54,58,53,49,93,63,32,30.05,30.00,29.93,10,10,6,23,7,28,0.00,2,,285
2011-10-19,71,63,55,55,53,50,93,71,49,30.03,30.00,29.96,10,10,9,16,7,18,0.00,4,,262
2011-10-20,76,65,53,55,53,52,93,70,46,30.08,30.01,29.97,10,9,6,14,4,16,0.00,4,,262
2011-10-21,80,65,50,57,52,48,96,69,42,30.17,30.11,30.06,10,9,3,10,1,13,0.00,2,,282
2011-10-22,86,67,48,52,47,43,89,57,24,30.12,30.06,29.99,10,10,8,14,3,18,0.00,0,,64
2011-10-23,85,67,49,54,49,42,77,56,34,30.00,29.95,29.89,10,10,10,14,4,18,0.00,0,,66
2011-10-24,78,65,51,54,52,48,86,65,43,30.03,29.96,29.93,10,10,10,21,7,24,0.00,1,,293
2011-10-25,73,61,49,52,49,44,89,64,38,30.07,30.03,29.99,10,10,8,14,4,16,0.00,2,,295
2011-10-26,74,58,42,45,30,14,93,52,11,30.14,30.08,30.03,10,10,9,14,4,18,0.00,0,,34
2011-10-27,74,57,40,34,31,27,60,40,19,30.08,30.05,29.99,10,10,10,12,2,18,0.00,0,,73
2011-10-28,77,60,42,39,36,33,70,46,22,30.14,30.09,30.06,10,10,10,12,2,16,0.00,0,,53
2011-10-29,81,62,42,42,36,29,76,46,15,30.17,30.10,30.04,10,10,10,14,2,18,0.00,0,,18
2011-10-30,81,64,46,43,40,37,66,45,23,30.12,30.07,30.02,10,10,10,13,2,17,0.00,0,,84
2011-10-31,81,65,49,53,45,40,77,53,28,30.07,30.01,29.94,10,10,10,12,2,16,0.00,0,,76